Anover de Tajo, Spain
Current Conditions -  °F | °C
As of 10:30 AM on Thursday 27 Nov 2014 (Local Time) from LEGT Reporting Station
Moderate Rain Moderate Rain  
Wind Chill: 46°   Ceiling: 3000
Heat Index: 48°   Visibility: 3mi
Dew Point: 46°   Wind: 6mph
Humidity: 93%   Direction: 120°ESE
Pressure: 29.65"   Gusts: NA
Location:  39.99°N, 3.77°W
Report Text: LEGT 270930Z 12005KT 5000 RA SCT020 OVC030 09/08 Q1004
Loading
Personal Weather Stations






























Interactive Weather Map New forecast layout! Learn more

10-Day Weather Forecast

Advertisements
Track Severe Weather on mobile